PWSweather.com
Personal Weather Stations
Station Observations
SPARKSRC
St. Petersburg, FL 33716

St. Petersburg, FL 33716

Lat: 27.876101, Lon: -82.657194

Elevation: 13

Station Type: Zephyr PWS-1000TD

High Low Average
Temperature 99.1°F37.3°C 75.9°F24.4°C 85.6°F29.8°C
Dew Point 81.0°F27.2°C 68.4°F20.2°C 74.5°F23.6°C
Winds 25.1 mph 40.4 kmh 1.6 mph 2.6 kmh 9.0 mph SSW14.5 kmh SSW
Wind Gusts 32.7 mph52.6 kmh 3.1 mph5.0 kmh 14.0 mph22.5 kmh
Humidity 80% 54% 70%
Pressure 30.07 in1018.3 mb 29.98 in1015.2 mb -
Precipitation 0.15 in3.8 mm - -
Hour Temp Dew Point Humidity Winds Wind Gusts Pressure Precip Precip Rate Daily Precip Total
12:00 AM 76.6°F24.8°C 68.6°F20.3°C 76% 2.2 mph WSW3.5 kmh WSW 3.8 mph6.1 kmh 30.04 in1017.3 mb 0.00 in0.0 mm 0.00 in0.0 mm 0.00 in0.0 mm
12:05 AM 76.6°F24.8°C 68.9°F20.5°C 77% 2.2 mph WSW3.5 kmh WSW 4.5 mph7.2 kmh 30.04 in1017.3 mb 0.00 in0.0 mm 0.00 in0.0 mm 0.00 in0.0 mm
12:10 AM 76.8°F24.9°C 69.1°F20.6°C 77% 3.1 mph SW5.0 kmh SW 4.5 mph7.2 kmh 30.04 in1017.3 mb 0.00 in0.0 mm 0.00 in0.0 mm 0.00 in0.0 mm
12:15 AM 76.8°F24.9°C 69.1°F20.6°C 77% 3.1 mph SW5.0 kmh SW 4.5 mph7.2 kmh 30.04 in1017.3 mb 0.00 in0.0 mm 0.00 in0.0 mm 0.00 in0.0 mm
12:20 AM 76.8°F24.9°C 69.1°F20.6°C 77% 3.1 mph SW5.0 kmh SW 4.5 mph7.2 kmh 30.04 in1017.3 mb 0.00 in0.0 mm 0.00 in0.0 mm 0.00 in0.0 mm
12:25 AM 76.8°F24.9°C 69.1°F20.6°C 77% 2.2 mph SW3.5 kmh SW 3.8 mph6.1 kmh 30.03 in1016.9 mb 0.00 in0.0 mm 0.00 in0.0 mm 0.00 in0.0 mm
12:30 AM 76.8°F24.9°C 69.1°F20.6°C 77% 1.6 mph SW2.6 kmh SW 3.8 mph6.1 kmh 30.03 in1016.9 mb 0.00 in0.0 mm 0.00 in0.0 mm 0.00 in0.0 mm
12:35 AM 76.8°F24.9°C 69.1°F20.6°C 77% 1.6 mph SW2.6 kmh SW 3.1 mph5.0 kmh 30.04 in1017.3 mb 0.00 in0.0 mm 0.00 in0.0 mm 0.00 in0.0 mm
12:40 AM 76.8°F24.9°C 69.1°F20.6°C 77% 2.2 mph SW3.5 kmh SW 3.1 mph5.0 kmh 30.03 in1016.9 mb 0.00 in0.0 mm 0.00 in0.0 mm 0.00 in0.0 mm
12:45 AM 76.8°F24.9°C 69.1°F20.6°C 77% 2.2 mph SW3.5 kmh SW 3.1 mph5.0 kmh 30.04 in1017.3 mb 0.00 in0.0 mm 0.00 in0.0 mm 0.00 in0.0 mm
12:50 AM 76.8°F24.9°C 69.1°F20.6°C 77% 2.2 mph SW3.5 kmh SW 3.8 mph6.1 kmh 30.04 in1017.3 mb 0.00 in0.0 mm 0.00 in0.0 mm 0.00 in0.0 mm
12:55 AM 76.8°F24.9°C 69.1°F20.6°C 77% 1.6 mph SW2.6 kmh SW 3.8 mph6.1 kmh 30.04 in1017.3 mb 0.00 in0.0 mm 0.00 in0.0 mm 0.00 in0.0 mm
01:00 AM 76.6°F24.8°C 68.9°F20.5°C 77% 1.6 mph SW2.6 kmh SW 3.1 mph5.0 kmh 30.04 in1017.3 mb 0.00 in0.0 mm 0.00 in0.0 mm 0.00 in0.0 mm
01:05 AM 76.6°F24.8°C 68.9°F20.5°C 77% 2.2 mph SW3.5 kmh SW 3.1 mph5.0 kmh 30.03 in1016.9 mb 0.00 in0.0 mm 0.00 in0.0 mm 0.00 in0.0 mm
01:10 AM 76.5°F24.7°C 68.8°F20.4°C 77% 2.2 mph SW3.5 kmh SW 3.1 mph5.0 kmh 30.03 in1016.9 mb 0.00 in0.0 mm 0.00 in0.0 mm 0.00 in0.0 mm
01:15 AM 76.5°F24.7°C 68.8°F20.4°C 77% 2.2 mph SW3.5 kmh SW 3.1 mph5.0 kmh 30.03 in1016.9 mb 0.00 in0.0 mm 0.00 in0.0 mm 0.00 in0.0 mm
01:20 AM 76.5°F24.7°C 68.8°F20.4°C 77% 3.1 mph SW5.0 kmh SW 3.8 mph6.1 kmh 30.03 in1016.9 mb 0.00 in0.0 mm 0.00 in0.0 mm 0.00 in0.0 mm
01:25 AM 76.5°F24.7°C 68.8°F20.4°C 77% 3.1 mph SW5.0 kmh SW 3.8 mph6.1 kmh 30.03 in1016.9 mb 0.00 in0.0 mm 0.00 in0.0 mm 0.00 in0.0 mm
01:30 AM 76.5°F24.7°C 68.8°F20.4°C 77% 3.1 mph SW5.0 kmh SW 3.8 mph6.1 kmh 30.02 in1016.6 mb 0.00 in0.0 mm 0.00 in0.0 mm 0.00 in0.0 mm
01:35 AM 76.5°F24.7°C 68.8°F20.4°C 77% 2.2 mph SW3.5 kmh SW 4.5 mph7.2 kmh 30.02 in1016.6 mb 0.00 in0.0 mm 0.00 in0.0 mm 0.00 in0.0 mm
01:40 AM 76.5°F24.7°C 68.8°F20.4°C 77% 2.2 mph SW3.5 kmh SW 4.5 mph7.2 kmh 30.01 in1016.3 mb 0.00 in0.0 mm 0.00 in0.0 mm 0.00 in0.0 mm
01:45 AM 76.3°F24.6°C 68.6°F20.3°C 77% 1.6 mph SW2.6 kmh SW 3.1 mph5.0 kmh 30.01 in1016.3 mb 0.00 in0.0 mm 0.00 in0.0 mm 0.00 in0.0 mm
01:50 AM 76.3°F24.6°C 68.6°F20.3°C 77% 1.6 mph SW2.6 kmh SW 3.1 mph5.0 kmh 30.01 in1016.3 mb 0.00 in0.0 mm 0.00 in0.0 mm 0.00 in0.0 mm
01:55 AM 76.1°F24.5°C 68.4°F20.2°C 77% 2.2 mph SW3.5 kmh SW 3.8 mph6.1 kmh 30.01 in1016.3 mb 0.00 in0.0 mm 0.00 in0.0 mm 0.00 in0.0 mm
02:00 AM 76.1°F24.5°C 68.8°F20.4°C 78% 3.1 mph SW5.0 kmh SW 3.8 mph6.1 kmh 30.00 in1015.9 mb 0.00 in0.0 mm 0.00 in0.0 mm 0.00 in0.0 mm
02:05 AM 76.3°F24.6°C 68.6°F20.3°C 77% 3.1 mph SW5.0 kmh SW 4.5 mph7.2 kmh 30.00 in1015.9 mb 0.00 in0.0 mm 0.00 in0.0 mm 0.00 in0.0 mm
02:10 AM 76.1°F24.5°C 68.8°F20.4°C 78% 3.1 mph SW5.0 kmh SW 4.5 mph7.2 kmh 30.00 in1015.9 mb 0.00 in0.0 mm 0.00 in0.0 mm 0.00 in0.0 mm
02:15 AM 76.1°F24.5°C 68.8°F20.4°C 78% 4.5 mph SW7.2 kmh SW 6.0 mph9.7 kmh 30.00 in1015.9 mb 0.00 in0.0 mm 0.00 in0.0 mm 0.00 in0.0 mm
02:20 AM 76.1°F24.5°C 68.8°F20.4°C 78% 4.5 mph SW7.2 kmh SW 6.0 mph9.7 kmh 30.00 in1015.9 mb 0.00 in0.0 mm 0.00 in0.0 mm 0.00 in0.0 mm
02:25 AM 76.1°F24.5°C 68.8°F20.4°C 78% 3.1 mph SW5.0 kmh SW 6.0 mph9.7 kmh 29.99 in1015.6 mb 0.00 in0.0 mm 0.00 in0.0 mm 0.00 in0.0 mm
02:30 AM 76.1°F24.5°C 68.8°F20.4°C 78% 3.8 mph SW6.1 kmh SW 5.4 mph8.7 kmh 29.99 in1015.6 mb 0.00 in0.0 mm 0.00 in0.0 mm 0.00 in0.0 mm
02:35 AM 76.1°F24.5°C 68.8°F20.4°C 78% 3.8 mph SW6.1 kmh SW 5.4 mph8.7 kmh 29.99 in1015.6 mb 0.00 in0.0 mm 0.00 in0.0 mm 0.00 in0.0 mm
02:40 AM 76.1°F24.5°C 68.8°F20.4°C 78% 4.5 mph SW7.2 kmh SW 5.4 mph8.7 kmh 29.99 in1015.6 mb 0.00 in0.0 mm 0.00 in0.0 mm 0.00 in0.0 mm
02:45 AM 76.1°F24.5°C 68.8°F20.4°C 78% 3.8 mph SW6.1 kmh SW 5.4 mph8.7 kmh 29.99 in1015.6 mb 0.00 in0.0 mm 0.00 in0.0 mm 0.00 in0.0 mm
02:50 AM 76.1°F24.5°C 68.8°F20.4°C 78% 3.1 mph SW5.0 kmh SW 5.4 mph8.7 kmh 29.99 in1015.6 mb 0.00 in0.0 mm 0.00 in0.0 mm 0.00 in0.0 mm
02:55 AM 76.1°F24.5°C 68.8°F20.4°C 78% 3.1 mph SW5.0 kmh SW 4.5 mph7.2 kmh 29.99 in1015.6 mb 0.00 in0.0 mm 0.00 in0.0 mm 0.00 in0.0 mm
03:00 AM 76.1°F24.5°C 68.8°F20.4°C 78% 3.8 mph SW6.1 kmh SW 4.5 mph7.2 kmh 29.99 in1015.6 mb 0.00 in0.0 mm 0.00 in0.0 mm 0.00 in0.0 mm
03:05 AM 75.9°F24.4°C 68.6°F20.3°C 78% 4.5 mph SW7.2 kmh SW 5.4 mph8.7 kmh 29.99 in1015.6 mb 0.00 in0.0 mm 0.00 in0.0 mm 0.00 in0.0 mm
03:10 AM 76.1°F24.5°C 68.8°F20.4°C 78% 3.8 mph SW6.1 kmh SW 5.4 mph8.7 kmh 29.99 in1015.6 mb 0.00 in0.0 mm 0.00 in0.0 mm 0.00 in0.0 mm
03:15 AM 76.1°F24.5°C 69.2°F20.7°C 79% 2.2 mph SW3.5 kmh SW 5.4 mph8.7 kmh 29.99 in1015.6 mb 0.00 in0.0 mm 0.00 in0.0 mm 0.00 in0.0 mm
03:20 AM 76.1°F24.5°C 68.8°F20.4°C 78% 3.1 mph SW5.0 kmh SW 4.5 mph7.2 kmh 29.99 in1015.6 mb 0.00 in0.0 mm 0.00 in0.0 mm 0.00 in0.0 mm
03:25 AM 76.1°F24.5°C 69.2°F20.7°C 79% 3.8 mph SW6.1 kmh SW 6.9 mph11.1 kmh 29.99 in1015.6 mb 0.00 in0.0 mm 0.00 in0.0 mm 0.00 in0.0 mm
03:30 AM 76.1°F24.5°C 69.2°F20.7°C 79% 3.8 mph SW6.1 kmh SW 6.9 mph11.1 kmh 29.99 in1015.6 mb 0.00 in0.0 mm 0.00 in0.0 mm 0.00 in0.0 mm
03:35 AM 76.1°F24.5°C 69.2°F20.7°C 79% 2.2 mph SW3.5 kmh SW 5.4 mph8.7 kmh 29.99 in1015.6 mb 0.00 in0.0 mm 0.00 in0.0 mm 0.00 in0.0 mm
03:40 AM 76.1°F24.5°C 69.2°F20.7°C 79% 2.2 mph SW3.5 kmh SW 4.5 mph7.2 kmh 29.99 in1015.6 mb 0.00 in0.0 mm 0.00 in0.0 mm 0.00 in0.0 mm
03:45 AM 75.9°F24.4°C 69.0°F20.6°C 79% 3.8 mph SW6.1 kmh SW 4.5 mph7.2 kmh 29.99 in1015.6 mb 0.00 in0.0 mm 0.00 in0.0 mm 0.00 in0.0 mm
03:50 AM 76.1°F24.5°C 69.2°F20.7°C 79% 3.1 mph SW5.0 kmh SW 4.5 mph7.2 kmh 29.99 in1015.6 mb 0.00 in0.0 mm 0.00 in0.0 mm 0.00 in0.0 mm
03:55 AM 76.1°F24.5°C 69.2°F20.7°C 79% 3.8 mph SW6.1 kmh SW 4.5 mph7.2 kmh 29.99 in1015.6 mb 0.00 in0.0 mm 0.00 in0.0 mm 0.00 in0.0 mm
04:00 AM 76.1°F24.5°C 69.2°F20.7°C 79% 3.1 mph SW5.0 kmh SW 4.5 mph7.2 kmh 29.98 in1015.2 mb 0.00 in0.0 mm 0.00 in0.0 mm 0.00 in0.0 mm
04:05 AM 76.1°F24.5°C 69.2°F20.7°C 79% 3.1 mph SW5.0 kmh SW 4.5 mph7.2 kmh 29.99 in1015.6 mb 0.00 in0.0 mm 0.00 in0.0 mm 0.00 in0.0 mm
04:10 AM 76.3°F24.6°C 69.3°F20.7°C 79% 3.1 mph SW5.0 kmh SW 4.5 mph7.2 kmh 29.99 in1015.6 mb 0.00 in0.0 mm 0.00 in0.0 mm 0.00 in0.0 mm
04:15 AM 76.3°F24.6°C 69.3°F20.7°C 79% 3.8 mph SW6.1 kmh SW 6.0 mph9.7 kmh 29.99 in1015.6 mb 0.00 in0.0 mm 0.00 in0.0 mm 0.00 in0.0 mm
04:20 AM 76.5°F24.7°C 69.5°F20.8°C 79% 3.1 mph SW5.0 kmh SW 7.6 mph12.2 kmh 29.99 in1015.6 mb 0.00 in0.0 mm 0.00 in0.0 mm 0.00 in0.0 mm
04:25 AM 76.3°F24.6°C 69.3°F20.7°C 79% 3.1 mph SW5.0 kmh SW 7.6 mph12.2 kmh 29.99 in1015.6 mb 0.00 in0.0 mm 0.00 in0.0 mm 0.00 in0.0 mm
04:30 AM 76.5°F24.7°C 69.5°F20.8°C 79% 3.8 mph SW6.1 kmh SW 5.4 mph8.7 kmh 29.99 in1015.6 mb 0.00 in0.0 mm 0.00 in0.0 mm 0.00 in0.0 mm
04:35 AM 76.5°F24.7°C 69.5°F20.8°C 79% 3.8 mph SW6.1 kmh SW 5.4 mph8.7 kmh 29.99 in1015.6 mb 0.00 in0.0 mm 0.00 in0.0 mm 0.00 in0.0 mm
04:40 AM 76.6°F24.8°C 69.7°F20.9°C 79% 5.4 mph SW8.7 kmh SW 8.3 mph13.4 kmh 29.99 in1015.6 mb 0.00 in0.0 mm 0.00 in0.0 mm 0.00 in0.0 mm
04:45 AM 76.6°F24.8°C 69.7°F20.9°C 79% 4.5 mph SW7.2 kmh SW 8.3 mph13.4 kmh 29.99 in1015.6 mb 0.00 in0.0 mm 0.00 in0.0 mm 0.00 in0.0 mm
04:50 AM 76.6°F24.8°C 69.7°F20.9°C 79% 4.5 mph SSW7.2 kmh SSW 8.3 mph13.4 kmh 29.99 in1015.6 mb 0.00 in0.0 mm 0.00 in0.0 mm 0.00 in0.0 mm
04:55 AM 76.6°F24.8°C 69.7°F20.9°C 79% 3.8 mph S6.1 kmh S 6.9 mph11.1 kmh 29.99 in1015.6 mb 0.00 in0.0 mm 0.00 in0.0 mm 0.00 in0.0 mm
05:00 AM 76.6°F24.8°C 69.7°F20.9°C 79% 4.5 mph S7.2 kmh S 6.0 mph9.7 kmh 29.99 in1015.6 mb 0.00 in0.0 mm 0.00 in0.0 mm 0.00 in0.0 mm
05:05 AM 76.8°F24.9°C 69.9°F21.1°C 79% 3.8 mph S6.1 kmh S 6.0 mph9.7 kmh 29.99 in1015.6 mb 0.00 in0.0 mm 0.00 in0.0 mm 0.00 in0.0 mm
05:10 AM 76.8°F24.9°C 69.9°F21.1°C 79% 3.1 mph S5.0 kmh S 6.0 mph9.7 kmh 29.99 in1015.6 mb 0.00 in0.0 mm 0.00 in0.0 mm 0.00 in0.0 mm
05:15 AM 76.6°F24.8°C 69.7°F20.9°C 79% 3.1 mph S5.0 kmh S 5.4 mph8.7 kmh 29.99 in1015.6 mb 0.00 in0.0 mm 0.00 in0.0 mm 0.00 in0.0 mm
05:20 AM 76.6°F24.8°C 69.7°F20.9°C 79% 3.8 mph S6.1 kmh S 4.5 mph7.2 kmh 29.99 in1015.6 mb 0.00 in0.0 mm 0.00 in0.0 mm 0.00 in0.0 mm
05:25 AM 76.6°F24.8°C 69.7°F20.9°C 79% 3.8 mph S6.1 kmh S 5.4 mph8.7 kmh 30.00 in1015.9 mb 0.00 in0.0 mm 0.00 in0.0 mm 0.00 in0.0 mm
05:30 AM 76.8°F24.9°C 69.9°F21.1°C 79% 4.5 mph S7.2 kmh S 6.0 mph9.7 kmh 29.99 in1015.6 mb 0.00 in0.0 mm 0.00 in0.0 mm 0.00 in0.0 mm
05:35 AM 76.6°F24.8°C 69.7°F20.9°C 79% 4.5 mph S7.2 kmh S 6.0 mph9.7 kmh 30.00 in1015.9 mb 0.00 in0.0 mm 0.00 in0.0 mm 0.00 in0.0 mm
05:40 AM 76.6°F24.8°C 70.1°F21.2°C 80% 3.1 mph S5.0 kmh S 5.4 mph8.7 kmh 29.99 in1015.6 mb 0.00 in0.0 mm 0.00 in0.0 mm 0.00 in0.0 mm
05:45 AM 76.6°F24.8°C 70.1°F21.2°C 80% 2.2 mph S3.5 kmh S 5.4 mph8.7 kmh 30.00 in1015.9 mb 0.00 in0.0 mm 0.00 in0.0 mm 0.00 in0.0 mm
05:50 AM 76.6°F24.8°C 70.1°F21.2°C 80% 2.2 mph S3.5 kmh S 3.8 mph6.1 kmh 30.00 in1015.9 mb 0.00 in0.0 mm 0.00 in0.0 mm 0.00 in0.0 mm
05:55 AM 76.5°F24.7°C 69.9°F21.1°C 80% 1.6 mph S2.6 kmh S 3.8 mph6.1 kmh 29.99 in1015.6 mb 0.00 in0.0 mm 0.00 in0.0 mm 0.00 in0.0 mm
06:00 AM 76.5°F24.7°C 69.9°F21.1°C 80% 2.2 mph S3.5 kmh S 3.8 mph6.1 kmh 30.00 in1015.9 mb 0.00 in0.0 mm 0.00 in0.0 mm 0.00 in0.0 mm
06:05 AM 76.5°F24.7°C 69.9°F21.1°C 80% 2.2 mph S3.5 kmh S 3.1 mph5.0 kmh 30.00 in1015.9 mb 0.00 in0.0 mm 0.00 in0.0 mm 0.00 in0.0 mm
06:10 AM 76.5°F24.7°C 69.9°F21.1°C 80% 2.2 mph S3.5 kmh S 3.8 mph6.1 kmh 30.00 in1015.9 mb 0.00 in0.0 mm 0.00 in0.0 mm 0.00 in0.0 mm
06:15 AM 76.3°F24.6°C 69.7°F20.9°C 80% 2.2 mph S3.5 kmh S 3.8 mph6.1 kmh 30.00 in1015.9 mb 0.00 in0.0 mm 0.00 in0.0 mm 0.00 in0.0 mm
06:20 AM 76.1°F24.5°C 69.5°F20.8°C 80% 2.2 mph S3.5 kmh S 3.1 mph5.0 kmh 30.00 in1015.9 mb 0.00 in0.0 mm 0.00 in0.0 mm 0.00 in0.0 mm
06:25 AM 76.1°F24.5°C 69.5°F20.8°C 80% 3.1 mph S5.0 kmh S 3.8 mph6.1 kmh 30.00 in1015.9 mb 0.00 in0.0 mm 0.00 in0.0 mm 0.00 in0.0 mm
06:30 AM 76.1°F24.5°C 69.5°F20.8°C 80% 3.8 mph S6.1 kmh S 4.5 mph7.2 kmh 30.01 in1016.3 mb 0.00 in0.0 mm 0.00 in0.0 mm 0.00 in0.0 mm
06:35 AM 76.1°F24.5°C 69.5°F20.8°C 80% 3.8 mph S6.1 kmh S 6.0 mph9.7 kmh 30.01 in1016.3 mb 0.00 in0.0 mm 0.00 in0.0 mm 0.00 in0.0 mm
06:40 AM 76.1°F24.5°C 69.5°F20.8°C 80% 2.2 mph S3.5 kmh S 6.0 mph9.7 kmh 30.00 in1015.9 mb 0.00 in0.0 mm 0.00 in0.0 mm 0.00 in0.0 mm
06:45 AM 76.1°F24.5°C 69.5°F20.8°C 80% 2.2 mph S3.5 kmh S 5.4 mph8.7 kmh 30.00 in1015.9 mb 0.00 in0.0 mm 0.00 in0.0 mm 0.00 in0.0 mm
06:50 AM 76.1°F24.5°C 69.5°F20.8°C 80% 2.2 mph S3.5 kmh S 3.1 mph5.0 kmh 30.00 in1015.9 mb 0.00 in0.0 mm 0.00 in0.0 mm 0.00 in0.0 mm
06:55 AM 76.1°F24.5°C 69.5°F20.8°C 80% 3.1 mph S5.0 kmh S 3.8 mph6.1 kmh 30.01 in1016.3 mb 0.00 in0.0 mm 0.00 in0.0 mm 0.00 in0.0 mm
07:00 AM 76.3°F24.6°C 69.7°F20.9°C 80% 3.1 mph S5.0 kmh S 4.5 mph7.2 kmh 30.01 in1016.3 mb 0.00 in0.0 mm 0.00 in0.0 mm 0.00 in0.0 mm
07:05 AM 76.5°F24.7°C 69.9°F21.1°C 80% 2.2 mph S3.5 kmh S 4.5 mph7.2 kmh 30.01 in1016.3 mb 0.00 in0.0 mm 0.00 in0.0 mm 0.00 in0.0 mm
07:10 AM 76.8°F24.9°C 70.2°F21.2°C 80% 2.2 mph S3.5 kmh S 3.8 mph6.1 kmh 30.00 in1015.9 mb 0.00 in0.0 mm 0.00 in0.0 mm 0.00 in0.0 mm
07:15 AM 77.2°F25.1°C 70.6°F21.4°C 80% 1.6 mph S2.6 kmh S 3.8 mph6.1 kmh 30.01 in1016.3 mb 0.00 in0.0 mm 0.00 in0.0 mm 0.00 in0.0 mm
07:20 AM 77.7°F25.4°C 71.1°F21.7°C 80% 1.6 mph S2.6 kmh S 3.8 mph6.1 kmh 30.02 in1016.6 mb 0.00 in0.0 mm 0.00 in0.0 mm 0.00 in0.0 mm
07:25 AM 78.4°F25.8°C 71.4°F21.9°C 79% 2.2 mph S3.5 kmh S 3.8 mph6.1 kmh 30.01 in1016.3 mb 0.00 in0.0 mm 0.00 in0.0 mm 0.00 in0.0 mm
07:30 AM 79.0°F26.1°C 72.0°F22.2°C 79% 2.2 mph S3.5 kmh S 3.1 mph5.0 kmh 30.02 in1016.6 mb 0.00 in0.0 mm 0.00 in0.0 mm 0.00 in0.0 mm
07:35 AM 79.7°F26.5°C 72.3°F22.4°C 78% 3.1 mph S5.0 kmh S 4.5 mph7.2 kmh 30.02 in1016.6 mb 0.00 in0.0 mm 0.00 in0.0 mm 0.00 in0.0 mm
07:40 AM 80.4°F26.9°C 72.6°F22.6°C 77% 3.8 mph SSW6.1 kmh SSW 5.4 mph8.7 kmh 30.02 in1016.6 mb 0.00 in0.0 mm 0.00 in0.0 mm 0.00 in0.0 mm
07:45 AM 81.0°F27.2°C 72.7°F22.6°C 76% 4.5 mph SW7.2 kmh SW 6.9 mph11.1 kmh 30.01 in1016.3 mb 0.00 in0.0 mm 0.00 in0.0 mm 0.00 in0.0 mm
07:50 AM 81.5°F27.5°C 73.3°F22.9°C 76% 5.4 mph SSW8.7 kmh SSW 6.9 mph11.1 kmh 30.01 in1016.3 mb 0.00 in0.0 mm 0.00 in0.0 mm 0.00 in0.0 mm
07:55 AM 82.0°F27.8°C 73.8°F23.2°C 76% 5.4 mph S8.7 kmh S 8.3 mph13.4 kmh 30.02 in1016.6 mb 0.00 in0.0 mm 0.00 in0.0 mm 0.00 in0.0 mm
08:00 AM 82.9°F28.3°C 74.3°F23.5°C 75% 7.6 mph S12.2 kmh S 9.8 mph15.8 kmh 30.02 in1016.6 mb 0.00 in0.0 mm 0.00 in0.0 mm 0.00 in0.0 mm
08:05 AM 83.7°F28.7°C 75.0°F23.9°C 75% 6.0 mph SSW9.7 kmh SSW 9.8 mph15.8 kmh 30.02 in1016.6 mb 0.00 in0.0 mm 0.00 in0.0 mm 0.00 in0.0 mm
08:10 AM 84.4°F29.1°C 75.3°F24.1°C 74% 5.4 mph S8.7 kmh S 9.2 mph14.8 kmh 30.02 in1016.6 mb 0.00 in0.0 mm 0.00 in0.0 mm 0.00 in0.0 mm
08:15 AM 85.3°F29.6°C 76.1°F24.5°C 74% 7.6 mph S12.2 kmh S 9.8 mph15.8 kmh 30.02 in1016.6 mb 0.00 in0.0 mm 0.00 in0.0 mm 0.00 in0.0 mm
08:20 AM 86.2°F30.1°C 76.6°F24.8°C 73% 6.0 mph SSW9.7 kmh SSW 11.4 mph18.3 kmh 30.03 in1016.9 mb 0.00 in0.0 mm 0.00 in0.0 mm 0.00 in0.0 mm
08:25 AM 86.7°F30.4°C 77.1°F25.1°C 73% 9.2 mph S14.8 kmh S 11.4 mph18.3 kmh 30.02 in1016.6 mb 0.00 in0.0 mm 0.00 in0.0 mm 0.00 in0.0 mm
08:30 AM 87.3°F30.7°C 77.2°F25.1°C 72% 11.4 mph S18.3 kmh S 13.6 mph21.9 kmh 30.02 in1016.6 mb 0.00 in0.0 mm 0.00 in0.0 mm 0.00 in0.0 mm
08:35 AM 87.8°F31.0°C 77.3°F25.2°C 71% 9.2 mph S14.8 kmh S 15.2 mph24.5 kmh 30.02 in1016.6 mb 0.00 in0.0 mm 0.00 in0.0 mm 0.00 in0.0 mm
08:40 AM 88.3°F31.3°C 77.8°F25.4°C 71% 9.2 mph S14.8 kmh S 15.2 mph24.5 kmh 30.02 in1016.6 mb 0.01 in0.3 mm 0.12 in3.0 mm 0.01 in0.3 mm
08:45 AM 88.9°F31.6°C 78.3°F25.7°C 71% 8.3 mph S13.4 kmh S 13.6 mph21.9 kmh 30.02 in1016.6 mb 0.01 in0.3 mm 0.00 in0.0 mm 0.01 in0.3 mm
08:50 AM 89.6°F32.0°C 78.6°F25.9°C 70% 12.1 mph S19.5 kmh S 18.3 mph29.5 kmh 30.02 in1016.6 mb 0.01 in0.3 mm 0.00 in0.0 mm 0.01 in0.3 mm
08:55 AM 89.8°F32.1°C 78.8°F26.0°C 70% 11.4 mph S18.3 kmh S 18.3 mph29.5 kmh 30.03 in1016.9 mb 0.01 in0.3 mm 0.00 in0.0 mm 0.01 in0.3 mm
09:00 AM 89.4°F31.9°C 78.0°F25.6°C 69% 13.0 mph S20.9 kmh S 19.0 mph30.6 kmh 30.02 in1016.6 mb 0.01 in0.3 mm 0.00 in0.0 mm 0.01 in0.3 mm
09:05 AM 90.1°F32.3°C 78.7°F25.9°C 69% 13.0 mph S20.9 kmh S 19.0 mph30.6 kmh 30.03 in1016.9 mb 0.01 in0.3 mm 0.00 in0.0 mm 0.01 in0.3 mm
09:10 AM 90.0°F32.2°C 78.1°F25.6°C 68% 14.5 mph S23.3 kmh S 19.0 mph30.6 kmh 30.03 in1016.9 mb 0.01 in0.3 mm 0.00 in0.0 mm 0.01 in0.3 mm
09:15 AM 90.1°F32.3°C 78.2°F25.7°C 68% 13.0 mph S20.9 kmh S 19.0 mph30.6 kmh 30.02 in1016.6 mb 0.01 in0.3 mm 0.00 in0.0 mm 0.01 in0.3 mm
09:20 AM 91.0°F32.8°C 79.1°F26.2°C 68% 12.1 mph S19.5 kmh S 18.3 mph29.5 kmh 30.02 in1016.6 mb 0.01 in0.3 mm 0.00 in0.0 mm 0.01 in0.3 mm
09:25 AM 91.4°F33.0°C 78.5°F25.8°C 66% 13.0 mph S20.9 kmh S 18.3 mph29.5 kmh 30.02 in1016.6 mb 0.01 in0.3 mm 0.00 in0.0 mm 0.01 in0.3 mm
09:30 AM 92.1°F33.4°C 79.2°F26.2°C 66% 13.0 mph S20.9 kmh S 19.7 mph31.7 kmh 30.02 in1016.6 mb 0.01 in0.3 mm 0.00 in0.0 mm 0.01 in0.3 mm
09:35 AM 92.5°F33.6°C 79.1°F26.2°C 65% 13.0 mph S20.9 kmh S 19.7 mph31.7 kmh 30.02 in1016.6 mb 0.00 in0.0 mm 0.00 in0.0 mm 0.01 in0.3 mm
09:40 AM 93.0°F33.9°C 79.1°F26.2°C 64% 15.2 mph S24.5 kmh S 19.7 mph31.7 kmh 30.03 in1016.9 mb 0.00 in0.0 mm 0.00 in0.0 mm 0.01 in0.3 mm
09:45 AM 92.7°F33.7°C 78.8°F26.0°C 64% 15.2 mph S24.5 kmh S 19.7 mph31.7 kmh 30.03 in1016.9 mb 0.00 in0.0 mm 0.00 in0.0 mm 0.01 in0.3 mm
09:50 AM 92.7°F33.7°C 78.8°F26.0°C 64% 13.6 mph S21.9 kmh S 19.7 mph31.7 kmh 30.03 in1016.9 mb 0.00 in0.0 mm 0.00 in0.0 mm 0.01 in0.3 mm
09:55 AM 93.4°F34.1°C 79.0°F26.1°C 63% 15.2 mph S24.5 kmh S 21.3 mph34.3 kmh 30.03 in1016.9 mb 0.00 in0.0 mm 0.00 in0.0 mm 0.01 in0.3 mm
10:00 AM 93.4°F34.1°C 78.5°F25.8°C 62% 14.5 mph S23.3 kmh S 21.3 mph34.3 kmh 30.03 in1016.9 mb 0.00 in0.0 mm 0.00 in0.0 mm 0.01 in0.3 mm
10:05 AM 93.9°F34.4°C 79.0°F26.1°C 62% 13.6 mph S21.9 kmh S 19.7 mph31.7 kmh 30.03 in1016.9 mb 0.00 in0.0 mm 0.00 in0.0 mm 0.01 in0.3 mm
10:10 AM 94.5°F34.7°C 79.5°F26.4°C 62% 14.5 mph S23.3 kmh S 20.6 mph33.2 kmh 30.03 in1016.9 mb 0.00 in0.0 mm 0.00 in0.0 mm 0.01 in0.3 mm
10:15 AM 95.0°F35.0°C 80.0°F26.7°C 62% 13.6 mph S21.9 kmh S 20.6 mph33.2 kmh 30.03 in1016.9 mb 0.00 in0.0 mm 0.00 in0.0 mm 0.01 in0.3 mm
10:20 AM 95.5°F35.3°C 80.0°F26.7°C 61% 15.9 mph S25.6 kmh S 19.7 mph31.7 kmh 30.03 in1016.9 mb 0.00 in0.0 mm 0.00 in0.0 mm 0.01 in0.3 mm
10:25 AM 94.8°F34.9°C 78.9°F26.1°C 60% 15.9 mph S25.6 kmh S 20.6 mph33.2 kmh 30.03 in1016.9 mb 0.00 in0.0 mm 0.00 in0.0 mm 0.01 in0.3 mm
10:30 AM 95.0°F35.0°C 79.0°F26.1°C 60% 10.7 mph SSW17.2 kmh SSW 21.3 mph34.3 kmh 30.03 in1016.9 mb 0.00 in0.0 mm 0.00 in0.0 mm 0.01 in0.3 mm
10:35 AM 94.8°F34.9°C 78.9°F26.1°C 60% 12.1 mph SW19.5 kmh SW 21.3 mph34.3 kmh 30.03 in1016.9 mb 0.00 in0.0 mm 0.00 in0.0 mm 0.01 in0.3 mm
10:40 AM 95.4°F35.2°C 79.4°F26.3°C 60% 13.6 mph SSW21.9 kmh SSW 23.5 mph37.8 kmh 30.03 in1016.9 mb 0.00 in0.0 mm 0.00 in0.0 mm 0.01 in0.3 mm
10:45 AM 95.9°F35.5°C 79.9°F26.6°C 60% 16.8 mph S27.0 kmh S 23.5 mph37.8 kmh 30.03 in1016.9 mb 0.00 in0.0 mm 0.00 in0.0 mm 0.01 in0.3 mm
10:50 AM 95.9°F35.5°C 79.4°F26.3°C 59% 14.5 mph S23.3 kmh S 21.3 mph34.3 kmh 30.04 in1017.3 mb 0.00 in0.0 mm 0.00 in0.0 mm 0.01 in0.3 mm
10:55 AM 95.5°F35.3°C 79.0°F26.1°C 59% 13.6 mph S21.9 kmh S 21.3 mph34.3 kmh 30.04 in1017.3 mb 0.00 in0.0 mm 0.00 in0.0 mm 0.01 in0.3 mm
11:00 AM 94.5°F34.7°C 78.0°F25.6°C 59% 14.5 mph S23.3 kmh S 20.6 mph33.2 kmh 30.03 in1016.9 mb 0.00 in0.0 mm 0.00 in0.0 mm 0.01 in0.3 mm
11:05 AM 93.7°F34.3°C 77.8°F25.4°C 60% 15.2 mph S24.5 kmh S 20.6 mph33.2 kmh 30.04 in1017.3 mb 0.00 in0.0 mm 0.00 in0.0 mm 0.01 in0.3 mm
11:10 AM 93.6°F34.2°C 78.2°F25.7°C 61% 14.5 mph SSW23.3 kmh SSW 20.6 mph33.2 kmh 30.03 in1016.9 mb 0.00 in0.0 mm 0.00 in0.0 mm 0.01 in0.3 mm
11:15 AM 94.3°F34.6°C 79.3°F26.3°C 62% 9.8 mph SW15.8 kmh SW 21.3 mph34.3 kmh 30.04 in1017.3 mb 0.00 in0.0 mm 0.00 in0.0 mm 0.01 in0.3 mm
11:20 AM 95.9°F35.5°C 79.9°F26.6°C 60% 12.1 mph SW19.5 kmh SW 21.3 mph34.3 kmh 30.04 in1017.3 mb 0.00 in0.0 mm 0.00 in0.0 mm 0.01 in0.3 mm
11:25 AM 96.8°F36.0°C 80.2°F26.8°C 59% 13.6 mph SW21.9 kmh SW 19.7 mph31.7 kmh 30.03 in1016.9 mb 0.00 in0.0 mm 0.00 in0.0 mm 0.01 in0.3 mm
11:30 AM 98.2°F36.8°C 81.0°F27.2°C 58% 16.8 mph SW27.0 kmh SW 20.6 mph33.2 kmh 30.03 in1016.9 mb 0.00 in0.0 mm 0.00 in0.0 mm 0.01 in0.3 mm
11:35 AM 98.2°F36.8°C 80.5°F26.9°C 57% 17.4 mph SSW28.0 kmh SSW 21.3 mph34.3 kmh 30.03 in1016.9 mb 0.00 in0.0 mm 0.00 in0.0 mm 0.01 in0.3 mm
11:40 AM 98.6°F37.0°C 80.8°F27.1°C 57% 15.2 mph S24.5 kmh S 21.3 mph34.3 kmh 30.04 in1017.3 mb 0.00 in0.0 mm 0.00 in0.0 mm 0.01 in0.3 mm
11:45 AM 99.1°F37.3°C 80.8°F27.1°C 56% 16.8 mph S27.0 kmh S 22.8 mph36.7 kmh 30.03 in1016.9 mb 0.00 in0.0 mm 0.00 in0.0 mm 0.01 in0.3 mm
11:50 AM 98.4°F36.9°C 80.1°F26.7°C 56% 12.1 mph S19.5 kmh S 22.8 mph36.7 kmh 30.04 in1017.3 mb 0.00 in0.0 mm 0.00 in0.0 mm 0.01 in0.3 mm
11:55 AM 97.7°F36.5°C 80.0°F26.7°C 57% 14.5 mph SSW23.3 kmh SSW 22.1 mph35.6 kmh 30.04 in1017.3 mb 0.00 in0.0 mm 0.00 in0.0 mm 0.01 in0.3 mm
12:00 PM 96.8°F36.0°C 79.7°F26.5°C 58% 14.5 mph SW23.3 kmh SW 21.3 mph34.3 kmh 30.04 in1017.3 mb 0.00 in0.0 mm 0.00 in0.0 mm 0.01 in0.3 mm
12:05 PM 96.6°F35.9°C 79.5°F26.4°C 58% 15.2 mph SW24.5 kmh SW 22.8 mph36.7 kmh 30.04 in1017.3 mb 0.00 in0.0 mm 0.00 in0.0 mm 0.01 in0.3 mm
12:10 PM 96.8°F36.0°C 79.7°F26.5°C 58% 16.8 mph S27.0 kmh S 22.8 mph36.7 kmh 30.04 in1017.3 mb 0.00 in0.0 mm 0.00 in0.0 mm 0.01 in0.3 mm
12:15 PM 97.0°F36.1°C 79.8°F26.6°C 58% 15.2 mph S24.5 kmh S 22.1 mph35.6 kmh 30.04 in1017.3 mb 0.00 in0.0 mm 0.00 in0.0 mm 0.01 in0.3 mm
12:20 PM 96.8°F36.0°C 79.7°F26.5°C 58% 15.9 mph SSW25.6 kmh SSW 22.1 mph35.6 kmh 30.04 in1017.3 mb 0.00 in0.0 mm 0.00 in0.0 mm 0.01 in0.3 mm
12:25 PM 96.4°F35.8°C 79.3°F26.3°C 58% 19.0 mph SW30.6 kmh SW 24.4 mph39.3 kmh 30.04 in1017.3 mb 0.00 in0.0 mm 0.00 in0.0 mm 0.01 in0.3 mm
12:30 PM 96.1°F35.6°C 79.0°F26.1°C 58% 17.4 mph SW28.0 kmh SW 24.4 mph39.3 kmh 30.04 in1017.3 mb 0.00 in0.0 mm 0.00 in0.0 mm 0.01 in0.3 mm
12:35 PM 95.5°F35.3°C 79.0°F26.1°C 59% 17.4 mph SW28.0 kmh SW 25.1 mph40.4 kmh 30.04 in1017.3 mb 0.00 in0.0 mm 0.00 in0.0 mm 0.01 in0.3 mm
12:40 PM 94.6°F34.8°C 78.2°F25.7°C 59% 13.0 mph SW20.9 kmh SW 25.1 mph40.4 kmh 30.04 in1017.3 mb 0.00 in0.0 mm 0.00 in0.0 mm 0.01 in0.3 mm
12:45 PM 94.5°F34.7°C 78.5°F25.8°C 60% 17.4 mph SSW28.0 kmh SSW 22.8 mph36.7 kmh 30.04 in1017.3 mb 0.00 in0.0 mm 0.00 in0.0 mm 0.01 in0.3 mm
12:50 PM 93.9°F34.4°C 78.0°F25.6°C 60% 19.0 mph SSW30.6 kmh SSW 23.5 mph37.8 kmh 30.04 in1017.3 mb 0.00 in0.0 mm 0.00 in0.0 mm 0.01 in0.3 mm
12:55 PM 92.5°F33.6°C 77.2°F25.1°C 61% 16.8 mph SW27.0 kmh SW 23.5 mph37.8 kmh 30.04 in1017.3 mb 0.00 in0.0 mm 0.00 in0.0 mm 0.01 in0.3 mm
01:00 PM 91.0°F32.8°C 77.2°F25.1°C 64% 13.0 mph SW20.9 kmh SW 22.8 mph36.7 kmh 30.05 in1017.6 mb 0.00 in0.0 mm 0.00 in0.0 mm 0.01 in0.3 mm
01:05 PM 89.6°F32.0°C 75.9°F24.4°C 64% 25.1 mph W40.4 kmh W 32.0 mph51.5 kmh 30.05 in1017.6 mb 0.05 in1.3 mm 0.60 in15.2 mm 0.06 in1.5 mm
01:10 PM 87.6°F30.9°C 74.9°F23.8°C 66% 11.4 mph WNW18.3 kmh WNW 32.0 mph51.5 kmh 30.06 in1017.9 mb 0.09 in2.3 mm 0.48 in12.2 mm 0.11 in2.8 mm
01:15 PM 86.5°F30.3°C 74.8°F23.8°C 68% 19.0 mph WSW30.6 kmh WSW 32.0 mph51.5 kmh 30.05 in1017.6 mb 0.11 in2.8 mm 0.24 in6.1 mm 0.12 in3.0 mm
01:20 PM 85.3°F29.6°C 74.5°F23.6°C 70% 15.2 mph WSW24.5 kmh WSW 32.7 mph52.6 kmh 30.06 in1017.9 mb 0.11 in2.8 mm 0.00 in0.0 mm 0.12 in3.0 mm
01:25 PM 84.9°F29.4°C 74.5°F23.6°C 71% 12.1 mph WSW19.5 kmh WSW 32.7 mph52.6 kmh 30.06 in1017.9 mb 0.12 in3.0 mm 0.12 in3.0 mm 0.13 in3.3 mm
01:30 PM 84.7°F29.3°C 74.8°F23.8°C 72% 13.6 mph WSW21.9 kmh WSW 25.9 mph41.7 kmh 30.06 in1017.9 mb 0.13 in3.3 mm 0.12 in3.0 mm 0.14 in3.6 mm
01:35 PM 84.4°F29.1°C 74.4°F23.6°C 72% 15.9 mph SW25.6 kmh SW 25.9 mph41.7 kmh 30.06 in1017.9 mb 0.13 in3.3 mm 0.00 in0.0 mm 0.14 in3.6 mm
01:40 PM 84.2°F29.0°C 74.7°F23.7°C 73% 14.5 mph SW23.3 kmh SW 24.4 mph39.3 kmh 30.06 in1017.9 mb 0.13 in3.3 mm 0.00 in0.0 mm 0.14 in3.6 mm
01:45 PM 83.8°F28.8°C 74.3°F23.5°C 73% 11.4 mph SW18.3 kmh SW 22.1 mph35.6 kmh 30.06 in1017.9 mb 0.13 in3.3 mm 0.00 in0.0 mm 0.14 in3.6 mm
01:50 PM 83.7°F28.7°C 74.6°F23.7°C 74% 13.0 mph SW20.9 kmh SW 19.7 mph31.7 kmh 30.05 in1017.6 mb 0.13 in3.3 mm 0.00 in0.0 mm 0.14 in3.6 mm
01:55 PM 83.3°F28.5°C 74.2°F23.4°C 74% 12.1 mph SW19.5 kmh SW 19.7 mph31.7 kmh 30.05 in1017.6 mb 0.13 in3.3 mm 0.00 in0.0 mm 0.14 in3.6 mm
02:00 PM 83.3°F28.5°C 74.6°F23.7°C 75% 8.3 mph SW13.4 kmh SW 17.4 mph28.0 kmh 30.05 in1017.6 mb 0.13 in3.3 mm 0.00 in0.0 mm 0.14 in3.6 mm
02:05 PM 83.5°F28.6°C 74.8°F23.8°C 75% 7.6 mph SW12.2 kmh SW 17.4 mph28.0 kmh 30.04 in1017.3 mb 0.08 in2.0 mm 0.00 in0.0 mm 0.14 in3.6 mm
02:10 PM 84.0°F28.9°C 75.3°F24.1°C 75% 10.7 mph SW17.2 kmh SW 15.2 mph24.5 kmh 30.03 in1016.9 mb 0.04 in1.0 mm 0.00 in0.0 mm 0.14 in3.6 mm
02:15 PM 85.5°F29.7°C 77.5°F25.3°C 77% 12.1 mph SW19.5 kmh SW 19.0 mph30.6 kmh 30.04 in1017.3 mb 0.02 in0.5 mm 0.00 in0.0 mm 0.14 in3.6 mm
02:20 PM 88.0°F31.1°C 79.1°F26.2°C 75% 10.7 mph SW17.2 kmh SW 19.7 mph31.7 kmh 30.03 in1016.9 mb 0.04 in1.0 mm 0.24 in6.1 mm 0.15 in3.8 mm
02:25 PM 88.7°F31.5°C 78.6°F25.9°C 72% 8.3 mph SW13.4 kmh SW 19.7 mph31.7 kmh 30.03 in1016.9 mb 0.02 in0.5 mm 0.00 in0.0 mm 0.15 in3.8 mm
02:30 PM 89.2°F31.8°C 78.7°F25.9°C 71% 12.1 mph SW19.5 kmh SW 15.2 mph24.5 kmh 30.03 in1016.9 mb 0.01 in0.3 mm 0.00 in0.0 mm 0.15 in3.8 mm
02:35 PM 89.6°F32.0°C 79.0°F26.1°C 71% 9.2 mph SW14.8 kmh SW 14.5 mph23.3 kmh 30.02 in1016.6 mb 0.01 in0.3 mm 0.00 in0.0 mm 0.15 in3.8 mm
02:40 PM 90.5°F32.5°C 79.0°F26.1°C 69% 12.1 mph SW19.5 kmh SW 15.9 mph25.6 kmh 30.02 in1016.6 mb 0.01 in0.3 mm 0.00 in0.0 mm 0.15 in3.8 mm
02:45 PM 90.5°F32.5°C 79.0°F26.1°C 69% 10.7 mph SW17.2 kmh SW 15.9 mph25.6 kmh 30.02 in1016.6 mb 0.01 in0.3 mm 0.00 in0.0 mm 0.15 in3.8 mm
02:50 PM 91.4°F33.0°C 79.4°F26.3°C 68% 8.3 mph SW13.4 kmh SW 15.9 mph25.6 kmh 30.02 in1016.6 mb 0.01 in0.3 mm 0.00 in0.0 mm 0.15 in3.8 mm
02:55 PM 92.5°F33.6°C 79.6°F26.4°C 66% 13.6 mph SW21.9 kmh SW 16.8 mph27.0 kmh 30.02 in1016.6 mb 0.01 in0.3 mm 0.00 in0.0 mm 0.15 in3.8 mm
03:00 PM 94.3°F34.6°C 80.3°F26.8°C 64% 13.6 mph SW21.9 kmh SW 17.4 mph28.0 kmh 30.01 in1016.3 mb 0.01 in0.3 mm 0.00 in0.0 mm 0.15 in3.8 mm
03:05 PM 95.5°F35.3°C 80.0°F26.7°C 61% 16.8 mph SW27.0 kmh SW 22.1 mph35.6 kmh 30.01 in1016.3 mb 0.01 in0.3 mm 0.00 in0.0 mm 0.15 in3.8 mm
03:10 PM 95.5°F35.3°C 79.0°F26.1°C 59% 15.2 mph SW24.5 kmh SW 22.8 mph36.7 kmh 30.00 in1015.9 mb 0.01 in0.3 mm 0.00 in0.0 mm 0.15 in3.8 mm
03:15 PM 95.7°F35.4°C 78.7°F25.9°C 58% 12.1 mph SW19.5 kmh SW 22.8 mph36.7 kmh 30.00 in1015.9 mb 0.01 in0.3 mm 0.00 in0.0 mm 0.15 in3.8 mm
03:20 PM 96.3°F35.7°C 78.6°F25.9°C 57% 15.9 mph SW25.6 kmh SW 22.8 mph36.7 kmh 30.00 in1015.9 mb 0.00 in0.0 mm 0.00 in0.0 mm 0.15 in3.8 mm
03:25 PM 96.4°F35.8°C 78.3°F25.7°C 56% 15.9 mph SW25.6 kmh SW 24.4 mph39.3 kmh 30.00 in1015.9 mb 0.00 in0.0 mm 0.00 in0.0 mm 0.15 in3.8 mm
03:30 PM 96.6°F35.9°C 78.4°F25.8°C 56% 15.2 mph SW24.5 kmh SW 24.4 mph39.3 kmh 30.00 in1015.9 mb 0.00 in0.0 mm 0.00 in0.0 mm 0.15 in3.8 mm
03:35 PM 96.6°F35.9°C 78.4°F25.8°C 56% 22.1 mph SW35.6 kmh SW 26.6 mph42.8 kmh 30.00 in1015.9 mb 0.00 in0.0 mm 0.00 in0.0 mm 0.15 in3.8 mm
03:40 PM 96.3°F35.7°C 78.1°F25.6°C 56% 15.2 mph SW24.5 kmh SW 26.6 mph42.8 kmh 30.00 in1015.9 mb 0.00 in0.0 mm 0.00 in0.0 mm 0.15 in3.8 mm
03:45 PM 96.3°F35.7°C 78.1°F25.6°C 56% 16.8 mph SW27.0 kmh SW 25.1 mph40.4 kmh 30.00 in1015.9 mb 0.00 in0.0 mm 0.00 in0.0 mm 0.15 in3.8 mm
03:50 PM 96.1°F35.6°C 77.4°F25.2°C 55% 21.3 mph SW34.3 kmh SW 27.3 mph43.9 kmh 30.00 in1015.9 mb 0.00 in0.0 mm 0.00 in0.0 mm 0.15 in3.8 mm
03:55 PM 95.7°F35.4°C 77.6°F25.3°C 56% 16.8 mph SW27.0 kmh SW 28.2 mph45.4 kmh 30.00 in1015.9 mb 0.00 in0.0 mm 0.00 in0.0 mm 0.15 in3.8 mm
04:00 PM 95.7°F35.4°C 77.1°F25.1°C 55% 15.9 mph SW25.6 kmh SW 28.2 mph45.4 kmh 30.00 in1015.9 mb 0.00 in0.0 mm 0.00 in0.0 mm 0.15 in3.8 mm
04:05 PM 95.9°F35.5°C 77.8°F25.4°C 56% 10.7 mph SW17.2 kmh SW 23.5 mph37.8 kmh 29.99 in1015.6 mb 0.00 in0.0 mm 0.00 in0.0 mm 0.15 in3.8 mm
04:10 PM 96.1°F35.6°C 77.9°F25.5°C 56% 13.0 mph SW20.9 kmh SW 20.6 mph33.2 kmh 29.99 in1015.6 mb 0.00 in0.0 mm 0.00 in0.0 mm 0.15 in3.8 mm
04:15 PM 96.6°F35.9°C 77.9°F25.5°C 55% 15.9 mph SW25.6 kmh SW 22.8 mph36.7 kmh 29.99 in1015.6 mb 0.00 in0.0 mm 0.00 in0.0 mm 0.15 in3.8 mm
04:20 PM 96.3°F35.7°C 77.0°F25.0°C 54% 15.9 mph SW25.6 kmh SW 25.1 mph40.4 kmh 29.99 in1015.6 mb 0.00 in0.0 mm 0.00 in0.0 mm 0.15 in3.8 mm
04:25 PM 96.1°F35.6°C 76.8°F24.9°C 54% 15.9 mph SW25.6 kmh SW 25.1 mph40.4 kmh 29.99 in1015.6 mb 0.00 in0.0 mm 0.00 in0.0 mm 0.15 in3.8 mm
04:30 PM 96.1°F35.6°C 76.8°F24.9°C 54% 16.8 mph SW27.0 kmh SW 24.4 mph39.3 kmh 29.99 in1015.6 mb 0.00 in0.0 mm 0.00 in0.0 mm 0.15 in3.8 mm
04:35 PM 95.9°F35.5°C 77.2°F25.1°C 55% 16.8 mph SW27.0 kmh SW 23.5 mph37.8 kmh 29.99 in1015.6 mb 0.00 in0.0 mm 0.00 in0.0 mm 0.15 in3.8 mm
04:40 PM 95.7°F35.4°C 77.1°F25.1°C 55% 14.5 mph SW23.3 kmh SW 23.5 mph37.8 kmh 29.99 in1015.6 mb 0.00 in0.0 mm 0.00 in0.0 mm 0.15 in3.8 mm
04:45 PM 95.5°F35.3°C 76.9°F24.9°C 55% 15.9 mph SW25.6 kmh SW 20.6 mph33.2 kmh 30.00 in1015.9 mb 0.00 in0.0 mm 0.00 in0.0 mm 0.15 in3.8 mm
04:50 PM 95.5°F35.3°C 76.9°F24.9°C 55% 19.0 mph SW30.6 kmh SW 22.8 mph36.7 kmh 29.99 in1015.6 mb 0.00 in0.0 mm 0.00 in0.0 mm 0.15 in3.8 mm
04:55 PM 95.2°F35.1°C 77.1°F25.1°C 56% 12.1 mph SW19.5 kmh SW 22.8 mph36.7 kmh 29.99 in1015.6 mb 0.00 in0.0 mm 0.00 in0.0 mm 0.15 in3.8 mm
05:00 PM 95.2°F35.1°C 77.1°F25.1°C 56% 14.5 mph SW23.3 kmh SW 21.3 mph34.3 kmh 29.99 in1015.6 mb 0.00 in0.0 mm 0.00 in0.0 mm 0.15 in3.8 mm
05:05 PM 95.0°F35.0°C 76.9°F24.9°C 56% 13.0 mph SSW20.9 kmh SSW 21.3 mph34.3 kmh 29.99 in1015.6 mb 0.00 in0.0 mm 0.00 in0.0 mm 0.15 in3.8 mm
05:10 PM 95.0°F35.0°C 76.9°F24.9°C 56% 13.0 mph SSW20.9 kmh SSW 22.1 mph35.6 kmh 29.99 in1015.6 mb 0.00 in0.0 mm 0.00 in0.0 mm 0.15 in3.8 mm
05:15 PM 95.0°F35.0°C 77.5°F25.3°C 57% 13.6 mph SW21.9 kmh SW 22.1 mph35.6 kmh 30.00 in1015.9 mb 0.00 in0.0 mm 0.00 in0.0 mm 0.15 in3.8 mm
05:20 PM 94.8°F34.9°C 76.8°F24.9°C 56% 13.6 mph WSW21.9 kmh WSW 19.7 mph31.7 kmh 30.00 in1015.9 mb 0.00 in0.0 mm 0.00 in0.0 mm 0.15 in3.8 mm
05:25 PM 94.5°F34.7°C 77.0°F25.0°C 57% 11.4 mph SW18.3 kmh SW 19.7 mph31.7 kmh 30.01 in1016.3 mb 0.00 in0.0 mm 0.00 in0.0 mm 0.15 in3.8 mm
05:30 PM 94.3°F34.6°C 76.8°F24.9°C 57% 15.9 mph SW25.6 kmh SW 21.3 mph34.3 kmh 30.00 in1015.9 mb 0.00 in0.0 mm 0.00 in0.0 mm 0.15 in3.8 mm
05:35 PM 93.9°F34.4°C 76.5°F24.7°C 57% 13.0 mph SW20.9 kmh SW 21.3 mph34.3 kmh 30.01 in1016.3 mb 0.00 in0.0 mm 0.00 in0.0 mm 0.15 in3.8 mm
05:40 PM 93.9°F34.4°C 77.0°F25.0°C 58% 13.0 mph SW20.9 kmh SW 20.6 mph33.2 kmh 30.01 in1016.3 mb 0.00 in0.0 mm 0.00 in0.0 mm 0.15 in3.8 mm
05:45 PM 93.9°F34.4°C 77.0°F25.0°C 58% 11.4 mph SW18.3 kmh SW 17.4 mph28.0 kmh 30.01 in1016.3 mb 0.00 in0.0 mm 0.00 in0.0 mm 0.15 in3.8 mm
05:50 PM 93.9°F34.4°C 77.0°F25.0°C 58% 13.6 mph SW21.9 kmh SW 17.4 mph28.0 kmh 30.01 in1016.3 mb 0.00 in0.0 mm 0.00 in0.0 mm 0.15 in3.8 mm
05:55 PM 93.6°F34.2°C 76.6°F24.8°C 58% 13.6 mph SSW21.9 kmh SSW 17.4 mph28.0 kmh 30.01 in1016.3 mb 0.00 in0.0 mm 0.00 in0.0 mm 0.15 in3.8 mm
06:00 PM 93.0°F33.9°C 76.7°F24.8°C 59% 13.0 mph SSW20.9 kmh SSW 16.8 mph27.0 kmh 30.01 in1016.3 mb 0.00 in0.0 mm 0.00 in0.0 mm 0.15 in3.8 mm
06:05 PM 92.5°F33.6°C 76.1°F24.5°C 59% 12.1 mph SW19.5 kmh SW 18.3 mph29.5 kmh 30.01 in1016.3 mb 0.00 in0.0 mm 0.00 in0.0 mm 0.15 in3.8 mm
06:10 PM 92.5°F33.6°C 76.7°F24.8°C 60% 9.2 mph SW14.8 kmh SW 18.3 mph29.5 kmh 30.02 in1016.6 mb 0.00 in0.0 mm 0.00 in0.0 mm 0.15 in3.8 mm
06:15 PM 92.3°F33.5°C 76.5°F24.7°C 60% 12.1 mph SW19.5 kmh SW 16.8 mph27.0 kmh 30.01 in1016.3 mb 0.00 in0.0 mm 0.00 in0.0 mm 0.15 in3.8 mm
06:20 PM 91.9°F33.3°C 76.1°F24.5°C 60% 7.6 mph SSW12.2 kmh SSW 16.8 mph27.0 kmh 30.01 in1016.3 mb 0.00 in0.0 mm 0.00 in0.0 mm 0.15 in3.8 mm
06:25 PM 91.9°F33.3°C 76.6°F24.8°C 61% 11.4 mph S18.3 kmh S 15.2 mph24.5 kmh 30.02 in1016.6 mb 0.00 in0.0 mm 0.00 in0.0 mm 0.15 in3.8 mm
06:30 PM 91.8°F33.2°C 76.5°F24.7°C 61% 10.7 mph S17.2 kmh S 16.8 mph27.0 kmh 30.02 in1016.6 mb 0.00 in0.0 mm 0.00 in0.0 mm 0.15 in3.8 mm
06:35 PM 91.4°F33.0°C 76.1°F24.5°C 61% 9.2 mph SSW14.8 kmh SSW 18.3 mph29.5 kmh 30.02 in1016.6 mb 0.00 in0.0 mm 0.00 in0.0 mm 0.15 in3.8 mm
06:40 PM 90.7°F32.6°C 75.9°F24.4°C 62% 12.1 mph SW19.5 kmh SW 18.3 mph29.5 kmh 30.01 in1016.3 mb 0.00 in0.0 mm 0.00 in0.0 mm 0.15 in3.8 mm
06:45 PM 90.5°F32.5°C 75.8°F24.3°C 62% 11.4 mph SW18.3 kmh SW 17.4 mph28.0 kmh 30.01 in1016.3 mb 0.00 in0.0 mm 0.00 in0.0 mm 0.15 in3.8 mm
06:50 PM 90.3°F32.4°C 76.1°F24.5°C 63% 11.4 mph SSW18.3 kmh SSW 19.7 mph31.7 kmh 30.01 in1016.3 mb 0.00 in0.0 mm 0.00 in0.0 mm 0.15 in3.8 mm
06:55 PM 90.0°F32.2°C 75.7°F24.3°C 63% 11.4 mph SSW18.3 kmh SSW 19.7 mph31.7 kmh 30.01 in1016.3 mb 0.00 in0.0 mm 0.00 in0.0 mm 0.15 in3.8 mm
07:00 PM 89.6°F32.0°C 75.9°F24.4°C 64% 13.6 mph SW21.9 kmh SW 16.8 mph27.0 kmh 30.01 in1016.3 mb 0.00 in0.0 mm 0.00 in0.0 mm 0.15 in3.8 mm
07:05 PM 89.2°F31.8°C 75.5°F24.2°C 64% 14.5 mph SW23.3 kmh SW 18.3 mph29.5 kmh 30.01 in1016.3 mb 0.00 in0.0 mm 0.00 in0.0 mm 0.15 in3.8 mm
07:10 PM 88.9°F31.6°C 75.7°F24.3°C 65% 11.4 mph SSW18.3 kmh SSW 18.3 mph29.5 kmh 30.01 in1016.3 mb 0.00 in0.0 mm 0.00 in0.0 mm 0.15 in3.8 mm
07:15 PM 88.5°F31.4°C 75.3°F24.1°C 65% 12.1 mph SSW19.5 kmh SSW 20.6 mph33.2 kmh 30.00 in1015.9 mb 0.00 in0.0 mm 0.00 in0.0 mm 0.15 in3.8 mm
07:20 PM 88.3°F31.3°C 75.6°F24.2°C 66% 13.6 mph SSW21.9 kmh SSW 20.6 mph33.2 kmh 30.00 in1015.9 mb 0.00 in0.0 mm 0.00 in0.0 mm 0.15 in3.8 mm
07:25 PM 87.6°F30.9°C 75.4°F24.1°C 67% 12.1 mph SW19.5 kmh SW 18.3 mph29.5 kmh 30.00 in1015.9 mb 0.00 in0.0 mm 0.00 in0.0 mm 0.15 in3.8 mm
07:30 PM 87.3°F30.7°C 75.0°F23.9°C 67% 12.1 mph SW19.5 kmh SW 16.8 mph27.0 kmh 30.00 in1015.9 mb 0.00 in0.0 mm 0.00 in0.0 mm 0.15 in3.8 mm
07:35 PM 87.1°F30.6°C 75.3°F24.1°C 68% 10.7 mph SW17.2 kmh SW 15.9 mph25.6 kmh 30.00 in1015.9 mb 0.00 in0.0 mm 0.00 in0.0 mm 0.15 in3.8 mm
07:40 PM 86.7°F30.4°C 75.0°F23.9°C 68% 9.8 mph SSW15.8 kmh SSW 15.9 mph25.6 kmh 30.00 in1015.9 mb 0.00 in0.0 mm 0.00 in0.0 mm 0.15 in3.8 mm
07:45 PM 86.5°F30.3°C 75.2°F24.0°C 69% 8.3 mph SW13.4 kmh SW 15.9 mph25.6 kmh 30.00 in1015.9 mb 0.00 in0.0 mm 0.00 in0.0 mm 0.15 in3.8 mm
07:50 PM 86.0°F30.0°C 74.7°F23.7°C 69% 9.2 mph SW14.8 kmh SW 12.1 mph19.5 kmh 30.01 in1016.3 mb 0.00 in0.0 mm 0.00 in0.0 mm 0.15 in3.8 mm
07:55 PM 85.6°F29.8°C 74.8°F23.8°C 70% 9.2 mph SW14.8 kmh SW 13.0 mph20.9 kmh 30.01 in1016.3 mb 0.00 in0.0 mm 0.00 in0.0 mm 0.15 in3.8 mm
08:00 PM 85.3°F29.6°C 74.9°F23.8°C 71% 7.6 mph SW12.2 kmh SW 13.0 mph20.9 kmh 30.01 in1016.3 mb 0.00 in0.0 mm 0.00 in0.0 mm 0.15 in3.8 mm
08:05 PM 84.9°F29.4°C 74.5°F23.6°C 71% 9.2 mph SW14.8 kmh SW 13.0 mph20.9 kmh 30.02 in1016.6 mb 0.00 in0.0 mm 0.00 in0.0 mm 0.15 in3.8 mm
08:10 PM 84.9°F29.4°C 74.5°F23.6°C 71% 11.4 mph SSW18.3 kmh SSW 13.6 mph21.9 kmh 30.01 in1016.3 mb 0.00 in0.0 mm 0.00 in0.0 mm 0.15 in3.8 mm
08:15 PM 84.6°F29.2°C 74.6°F23.7°C 72% 6.9 mph SSW11.1 kmh SSW 13.6 mph21.9 kmh 30.01 in1016.3 mb 0.00 in0.0 mm 0.00 in0.0 mm 0.15 in3.8 mm
08:20 PM 84.6°F29.2°C 74.6°F23.7°C 72% 9.8 mph SW15.8 kmh SW 13.6 mph21.9 kmh 30.02 in1016.6 mb 0.00 in0.0 mm 0.00 in0.0 mm 0.15 in3.8 mm
08:25 PM 84.2°F29.0°C 74.3°F23.5°C 72% 8.3 mph SW13.4 kmh SW 12.1 mph19.5 kmh 30.02 in1016.6 mb 0.00 in0.0 mm 0.00 in0.0 mm 0.15 in3.8 mm
08:30 PM 84.0°F28.9°C 74.5°F23.6°C 73% 9.2 mph SW14.8 kmh SW 12.1 mph19.5 kmh 30.02 in1016.6 mb 0.00 in0.0 mm 0.00 in0.0 mm 0.15 in3.8 mm
08:35 PM 83.7°F28.7°C 74.1°F23.4°C 73% 8.3 mph SW13.4 kmh SW 12.1 mph19.5 kmh 30.02 in1016.6 mb 0.00 in0.0 mm 0.00 in0.0 mm 0.15 in3.8 mm
08:40 PM 83.5°F28.6°C 74.0°F23.3°C 73% 8.3 mph SW13.4 kmh SW 13.6 mph21.9 kmh 30.02 in1016.6 mb 0.00 in0.0 mm 0.00 in0.0 mm 0.15 in3.8 mm
08:45 PM 83.5°F28.6°C 74.0°F23.3°C 73% 6.9 mph SW11.1 kmh SW 13.6 mph21.9 kmh 30.02 in1016.6 mb 0.00 in0.0 mm 0.00 in0.0 mm 0.15 in3.8 mm
08:50 PM 83.3°F28.5°C 74.2°F23.4°C 74% 6.9 mph SW11.1 kmh SW 13.0 mph20.9 kmh 30.03 in1016.9 mb 0.00 in0.0 mm 0.00 in0.0 mm 0.15 in3.8 mm
08:55 PM 83.3°F28.5°C 74.2°F23.4°C 74% 8.3 mph SW13.4 kmh SW 11.4 mph18.3 kmh 30.03 in1016.9 mb 0.00 in0.0 mm 0.00 in0.0 mm 0.15 in3.8 mm
09:00 PM 82.9°F28.3°C 73.9°F23.3°C 74% 6.0 mph SW9.7 kmh SW 11.4 mph18.3 kmh 30.03 in1016.9 mb 0.00 in0.0 mm 0.00 in0.0 mm 0.15 in3.8 mm
09:05 PM 83.1°F28.4°C 74.0°F23.3°C 74% 5.4 mph SW8.7 kmh SW 10.7 mph17.2 kmh 30.03 in1016.9 mb 0.00 in0.0 mm 0.00 in0.0 mm 0.15 in3.8 mm
09:10 PM 82.9°F28.3°C 74.3°F23.5°C 75% 6.9 mph SW11.1 kmh SW 10.7 mph17.2 kmh 30.04 in1017.3 mb 0.00 in0.0 mm 0.00 in0.0 mm 0.15 in3.8 mm
09:15 PM 82.8°F28.2°C 74.1°F23.4°C 75% 6.9 mph SW11.1 kmh SW 10.7 mph17.2 kmh 30.04 in1017.3 mb 0.00 in0.0 mm 0.00 in0.0 mm 0.15 in3.8 mm
09:20 PM 82.8°F28.2°C 74.1°F23.4°C 75% 6.0 mph SW9.7 kmh SW 10.7 mph17.2 kmh 30.05 in1017.6 mb 0.00 in0.0 mm 0.00 in0.0 mm 0.15 in3.8 mm
09:25 PM 82.6°F28.1°C 73.9°F23.3°C 75% 6.0 mph SW9.7 kmh SW 10.7 mph17.2 kmh 30.04 in1017.3 mb 0.00 in0.0 mm 0.00 in0.0 mm 0.15 in3.8 mm
09:30 PM 82.6°F28.1°C 73.9°F23.3°C 75% 6.9 mph SW11.1 kmh SW 9.8 mph15.8 kmh 30.04 in1017.3 mb 0.00 in0.0 mm 0.00 in0.0 mm 0.15 in3.8 mm
09:35 PM 82.6°F28.1°C 73.9°F23.3°C 75% 9.2 mph SW14.8 kmh SW 12.1 mph19.5 kmh 30.04 in1017.3 mb 0.00 in0.0 mm 0.00 in0.0 mm 0.15 in3.8 mm
09:40 PM 82.6°F28.1°C 73.9°F23.3°C 75% 5.4 mph SSW8.7 kmh SSW 12.1 mph19.5 kmh 30.04 in1017.3 mb 0.00 in0.0 mm 0.00 in0.0 mm 0.15 in3.8 mm
09:45 PM 82.4°F28.0°C 74.1°F23.4°C 76% 7.6 mph SSW12.2 kmh SSW 9.8 mph15.8 kmh 30.04 in1017.3 mb 0.00 in0.0 mm 0.00 in0.0 mm 0.15 in3.8 mm
09:50 PM 82.4°F28.0°C 74.1°F23.4°C 76% 6.0 mph SSW9.7 kmh SSW 12.1 mph19.5 kmh 30.05 in1017.6 mb 0.00 in0.0 mm 0.00 in0.0 mm 0.15 in3.8 mm
09:55 PM 82.6°F28.1°C 74.3°F23.5°C 76% 5.4 mph SSW8.7 kmh SSW 12.1 mph19.5 kmh 30.05 in1017.6 mb 0.00 in0.0 mm 0.00 in0.0 mm 0.15 in3.8 mm
10:00 PM 82.4°F28.0°C 74.1°F23.4°C 76% 8.3 mph SSW13.4 kmh SSW 12.1 mph19.5 kmh 30.05 in1017.6 mb 0.00 in0.0 mm 0.00 in0.0 mm 0.15 in3.8 mm
10:05 PM 82.4°F28.0°C 74.1°F23.4°C 76% 7.6 mph SSW12.2 kmh SSW 12.1 mph19.5 kmh 30.05 in1017.6 mb 0.00 in0.0 mm 0.00 in0.0 mm 0.15 in3.8 mm
10:10 PM 82.4°F28.0°C 74.1°F23.4°C 76% 6.9 mph SSW11.1 kmh SSW 12.1 mph19.5 kmh 30.05 in1017.6 mb 0.00 in0.0 mm 0.00 in0.0 mm 0.15 in3.8 mm
10:15 PM 82.4°F28.0°C 74.1°F23.4°C 76% 8.3 mph S13.4 kmh S 10.7 mph17.2 kmh 30.05 in1017.6 mb 0.00 in0.0 mm 0.00 in0.0 mm 0.15 in3.8 mm
10:20 PM 82.4°F28.0°C 74.1°F23.4°C 76% 7.6 mph SSW12.2 kmh SSW 11.4 mph18.3 kmh 30.05 in1017.6 mb 0.00 in0.0 mm 0.00 in0.0 mm 0.15 in3.8 mm
10:25 PM 82.4°F28.0°C 74.1°F23.4°C 76% 8.3 mph SW13.4 kmh SW 11.4 mph18.3 kmh 30.05 in1017.6 mb 0.00 in0.0 mm 0.00 in0.0 mm 0.15 in3.8 mm
10:30 PM 82.4°F28.0°C 74.1°F23.4°C 76% 7.6 mph SW12.2 kmh SW 13.6 mph21.9 kmh 30.05 in1017.6 mb 0.00 in0.0 mm 0.00 in0.0 mm 0.15 in3.8 mm
10:35 PM 82.4°F28.0°C 74.1°F23.4°C 76% 6.9 mph SSW11.1 kmh SSW 13.6 mph21.9 kmh 30.06 in1017.9 mb 0.00 in0.0 mm 0.00 in0.0 mm 0.15 in3.8 mm
10:40 PM 82.4°F28.0°C 74.1°F23.4°C 76% 8.3 mph S13.4 kmh S 11.4 mph18.3 kmh 30.06 in1017.9 mb 0.00 in0.0 mm 0.00 in0.0 mm 0.15 in3.8 mm
10:45 PM 82.2°F27.9°C 74.3°F23.5°C 77% 7.6 mph S12.2 kmh S 11.4 mph18.3 kmh 30.06 in1017.9 mb 0.00 in0.0 mm 0.00 in0.0 mm 0.15 in3.8 mm
10:50 PM 82.2°F27.9°C 74.3°F23.5°C 77% 8.3 mph SSW13.4 kmh SSW 13.6 mph21.9 kmh 30.06 in1017.9 mb 0.00 in0.0 mm 0.00 in0.0 mm 0.15 in3.8 mm
10:55 PM 82.2°F27.9°C 74.3°F23.5°C 77% 5.4 mph SSW8.7 kmh SSW 13.6 mph21.9 kmh 30.06 in1017.9 mb 0.00 in0.0 mm 0.00 in0.0 mm 0.15 in3.8 mm
11:00 PM 82.0°F27.8°C 74.2°F23.4°C 77% 6.0 mph SSW9.7 kmh SSW 10.7 mph17.2 kmh 30.06 in1017.9 mb 0.00 in0.0 mm 0.00 in0.0 mm 0.15 in3.8 mm
11:05 PM 82.0°F27.8°C 74.2°F23.4°C 77% 6.0 mph SSW9.7 kmh SSW 12.1 mph19.5 kmh 30.06 in1017.9 mb 0.00 in0.0 mm 0.00 in0.0 mm 0.15 in3.8 mm
11:10 PM 82.0°F27.8°C 74.2°F23.4°C 77% 6.9 mph SW11.1 kmh SW 12.1 mph19.5 kmh 30.06 in1017.9 mb 0.00 in0.0 mm 0.00 in0.0 mm 0.15 in3.8 mm
11:15 PM 82.0°F27.8°C 74.2°F23.4°C 77% 9.2 mph SW14.8 kmh SW 12.1 mph19.5 kmh 30.06 in1017.9 mb 0.00 in0.0 mm 0.00 in0.0 mm 0.15 in3.8 mm
11:20 PM 82.0°F27.8°C 74.6°F23.7°C 78% 6.9 mph SW11.1 kmh SW 12.1 mph19.5 kmh 30.06 in1017.9 mb 0.00 in0.0 mm 0.00 in0.0 mm 0.15 in3.8 mm
11:25 PM 82.0°F27.8°C 74.6°F23.7°C 78% 12.1 mph SW19.5 kmh SW 15.2 mph24.5 kmh 30.06 in1017.9 mb 0.00 in0.0 mm 0.00 in0.0 mm 0.15 in3.8 mm
11:30 PM 82.0°F27.8°C 74.6°F23.7°C 78% 8.3 mph SW13.4 kmh SW 15.2 mph24.5 kmh 30.06 in1017.9 mb 0.00 in0.0 mm 0.00 in0.0 mm 0.15 in3.8 mm
11:35 PM 82.0°F27.8°C 74.6°F23.7°C 78% 8.3 mph SW13.4 kmh SW 15.2 mph24.5 kmh 30.06 in1017.9 mb 0.00 in0.0 mm 0.00 in0.0 mm 0.15 in3.8 mm
11:40 PM 82.0°F27.8°C 74.6°F23.7°C 78% 6.0 mph SW9.7 kmh SW 11.4 mph18.3 kmh 30.06 in1017.9 mb 0.00 in0.0 mm 0.00 in0.0 mm 0.15 in3.8 mm
11:45 PM 82.0°F27.8°C 74.6°F23.7°C 78% 6.0 mph SW9.7 kmh SW 11.4 mph18.3 kmh 30.06 in1017.9 mb 0.00 in0.0 mm 0.00 in0.0 mm 0.15 in3.8 mm
11:50 PM 82.0°F27.8°C 74.6°F23.7°C 78% 6.0 mph SW9.7 kmh SW 9.2 mph14.8 kmh 30.06 in1017.9 mb 0.00 in0.0 mm 0.00 in0.0 mm 0.15 in3.8 mm
11:55 PM 81.9°F27.7°C 74.4°F23.6°C 78% 6.9 mph SW11.1 kmh SW 11.4 mph18.3 kmh 30.06 in1017.9 mb 0.00 in0.0 mm 0.00 in0.0 mm 0.15 in3.8 mm